Search in ebookee.net!

标签: 电子杂志



添加时间最近添加 电子杂志:

  1. 2011-01-29RMF - Rail Miniature Flash - Integrale 2000
  2. 2011-01-29RMF - Rail Miniature Flash - Integrale 1999
  3. 2011-01-29RMF - Rail Miniature Flash - Integrale 1998
  4. 2011-01-29RMF - Rail Miniature Flash - Integrale 2007
  5. 2011-01-29RMF - Rail Miniature Flash - Integrale 2006
  6. 2011-01-29RMF - Rail Miniature Flash - Integrale 2005
  7. 2011-01-29Finanza & Mercati del 29 Gennaio 2011
  8. 2011-01-29Totoguida Scommesse n. 08 del 28 Gennaio 2011
  9. 2011-01-29Il Sole 24 Ore del 29 Gennaio 2011
  10. 2011-01-29Europa 29.01.2011
  11. 2011-01-29L'Opinione 29.01.2011
  12. 2011-01-29Il Piccolo Trieste Gorizia del 29 Gennaio 2011
  13. 2011-01-29Le Parisien & Le cahiers Paris - Samedi 29 janvier 2011
  14. 2011-01-29FRONT Magazine – March 2011
  15. 2011-01-29Ceramics: Art and Perception – Issue 82 - 2010
  16. 2011-01-29Specializzata – November/December 2010
  17. 2011-01-29Okrety Wojenne №90, 4/2008
  18. 2011-01-29Okrety Wojenne №84, 4/2007
  19. 2011-01-29Okrety Wojenne №79, 5/2006
  20. 2011-01-29Okrety Wojenne №78, 4/2006
  21. 2011-01-29Okrety Wojenne №67, 5/2004
  22. 2011-01-29Military revue - 08/2010
  23. 2011-01-29Military revue - 07/2010
  24. 2011-01-29H mag / Jan 2011 - Year IV - Issue n.24
  25. 2011-01-29Borsa & Finanza Nr. 872 del 29 gennaio 2011
  26. 2011-01-29Sole Plus24 - 29 gennaio 2010
  27. 2011-01-29High Times No. 420 (January 2011)
  28. 2011-01-29High Times No. 422 (March 2011)
  29. 2011-01-29Insignia Magazine 11
  30. 2011-01-29Bloomberg Businessweek - 31 January-06 February 2011
  31. 2011-01-29ModellFan - Januar 2006
  32. 2011-01-29L'Italiano 29.01.2011
  33. 2011-01-29Florida Homes Vol. 3 Issue 1 2011
  34. 2011-01-2920minuten Friday 04-2011
  35. 2011-01-29crescendo Nr. 01 - Februar/März 2011
  36. 2011-01-29TELE-satellite 11-03
  37. 2011-01-29Home Design Central Coast - Fall 2010/Summer 2011
  38. 2011-01-29Hérenguel - Lune d'argent sur Providence - Complet
  39. 2011-01-29Morza Statki i Okrety №5, 2004
  40. 2011-01-29Morza Statki i Okrety №4, 2004
  41. 2011-01-29Morza Statki i Okrety №3, 2004
  42. 2011-01-29Morze Statki i Okrety №1, 2006
  43. 2011-01-29Morza Statki i Okrety №6, 2004
  44. 2011-01-29Великие парусники №53 2011 (январь)
  45. 2011-01-29Finanztest Magazin Sonderheft Steuern Januar 2011
  46. 2011-01-29L'Espresso n. 5 del febbraio 2011
  47. 2011-01-29La Provence & Le cahier Sports - Samedi 29 Janvier 2011
  48. 2011-01-29El País. 29 Enero
  49. 2011-01-29Cucina Moderna Gennaio 2011
  50. 2011-01-29LA NOUVELLE REPUBLIQUE 29 JANVIER 2011
  51. 2011-01-29Jornal O Globo - 29 de janeiro de 2011
  52. 2011-01-29MacLife Germany Magazin No 03 2011
  53. 2011-01-29Bonhomme - Le voyage d’Esteban - Complet
  54. 2011-01-29Tanoshii Origami Handicraft № 2
  55. 2011-01-29Modeling film cartoon origami
  56. 2011-01-29Cross Stitch Collection 167
  57. 2011-01-29Ides of blood 1-6 [complete]
  58. 2011-01-29Jornal O Estado de SP em PDF, Sabado, 29 de Janeiro de 2011
  59. 2011-01-29Nature - January 2011 (All Issues)
  60. 2011-01-29Playboy's Working Women - February 1984
  61. 2011-01-29Monthly Young Magazine - February 2011 (N°2)
  62. 2011-01-29Log Home Living (June 2010)
  63. 2011-01-29Garten Welt 2009
  64. 2011-01-29Le Monde & Supplément TV - Dimanche 30 et Lundi 31 janvier 2011
  65. 2011-01-29Coin Values. February 2009, №2
  66. 2011-01-29The real ghostbusters I, II, and annuals [complete]
  67. 2011-01-29Coin Values. April 2009, №4
  68. 2011-01-29Coin Values. March 2009, №3
  69. 2011-01-29LE TEMPS 29 JANVIER 2011
  70. 2011-01-29TRIBUNE DE GENEVE 27 28 29 JANVIER 2011
  71. 2011-01-29Over21 - UK Edition - March 1984
  72. 2011-01-29Coin Values. June 2009, №6
  73. 2011-01-29The Times Literary Supplement (TLS) - 14 January 2011
  74. 2011-01-29STARS AND STRIPES NEWSPAPER 29 JANUARY 2011
  75. 2011-01-29LE SOIR D' ALGERIE 29 JANVIER 2011
  76. 2011-01-29Coin Values. September 2009, №9
  77. 2011-01-29Coin Values. August 2009, №8
  78. 2011-01-29Coin Values. July 2009, №7
  79. 2011-01-29La Cruzada Del Saber N° 04 - June 2009
  80. 2011-01-29EDN Magazine, 20 January 2011
  81. 2011-01-29Harper's Bazaar - January 2009
  82. 2011-01-29Miba Modellbahn Praxis Bahnhoefe und Haltepunkte
  83. 2011-01-29Coin Values. November 2009, №11
  84. 2011-01-29Coin Values. October 2009, №10
  85. 2011-01-29LA TRIBUNE 29 JANVIER 2011
  86. 2011-01-29LOS ANGELES TIMES 29 JANUARY 2011
  87. 2011-01-29Nuff Said TPB (2002)
  88. 2011-01-29Invincible Iron Man #500 (2011)
  89. 2011-01-29Kuwait Times - NO: 14983 - Friday, January 28, 2011
  90. 2011-01-29Kuwait Times - Saturday, January 29, 2011
  91. 2011-01-29Friday Times - NO: 14983 - Friday, January 28, 2011
  92. 2011-01-29Saturday Morning Press - Saturday, January 29, 2011
  93. 2011-01-29The Columbia Chronicle - January 31, 2011
  94. 2011-01-29Arab Times - Saturday, January 29, 2011
  95. 2011-01-29Weird Mystery Tales #1-24 (1972-1975)
  96. 2011-01-29Key - February 2011
  97. 2011-01-29Transworld Skateboarding - March 2011
  98. 2011-01-29Nuts – 21 January 2011
  99. 2011-01-29ProAudio Review - January 2011
  100. 2011-01-29Michel - Rundschau №11, 2009
  101. 2011-01-29Michel - Rundschau №9, 2009

更多 ...

1552 页, 共 155143 电子杂志 本电子图书,查看所有页->

[末页] ... [1006] [1005] [1004] [1003] [1002] [1001] [1000] [999] [998] [997] [996] [995] [994] [993] [992] [991] [990] [989] [988] [987]

Search in ebookee.com!
Back to Top